Tropical Cyclones
[Index]
Main Index Home Page Stock Weather Photos Extreme Storms Discussion Storm News and Storm Chasing Reports Tropical Cyclones / Hurricanes / Typhoons Weather Data and Links Wild Fires / Bushfires Weather Observation Techniques Weather Picture Catalogue Tornado Pictures and Reports Stock Video Footage and DVDs for sale
Season 2013-2014 Tropical Cyclone IAN Track Map
Season 2013-2014 Summaries (Operational Data): [AU] [SIO] [SPAC] [SH]
<<- Previous TC | 2013-2014 Season | Next TC ->>

click for intensity scale information  Lat/long Grid: Show Hide

 Date Labels: Show Hide

Operational Tropical Cyclone Data : JTWC Advisories

Name: IAN
Number: 1407

01 Jan 2014 06:00 UTC to 14 Jan 2014 12:00 UTC

    date/time    lat    long     hPa   cat  kts
2014-01-01 06   15.9   173.0W   1005                     
2014-01-01 18   13.9   175.9W   1004                     
2014-01-02 06   12.3   173.7W   1004                     
2014-01-02 18   15.0   175.8W   1005                     
2014-01-03 06   14.2   176.0W   1004                     
2014-01-03 18   15.5   175.7W   1010         15          
2014-01-04 00   15.0   176.4W   1010         15          
2014-01-04 06   15.8   176.3W   1010         15          
2014-01-04 12   16.6   176.2W   1010         15          
2014-01-04 18   17.5   176.1W   1010         15          
2014-01-05 00   18.0   176.0W   1004         25          
2014-01-05 06   18.4   175.9W   1000         30          
2014-01-05 12   18.7   175.7W   1000         30          
2014-01-05 18   18.9   175.5W    996    1    35          
2014-01-06 00   19.0   175.4W    996    1    35          
2014-01-06 06   19.0   175.5W    996    1    35          
2014-01-06 12   19.1   175.7W    996    1    35          
2014-01-06 18   18.7   175.9W    996    1    35          
2014-01-07 00   18.3   176.0W    996    1    35          
2014-01-07 06   17.6   176.1W    996    1    35          
2014-01-07 12   17.2   176.5W    996    1    35          
2014-01-07 18   17.0   176.7W    989    1    45          
2014-01-08 00   16.9   176.9W    985    2    50          
2014-01-08 06   16.8   177.0W    982    2    55          
2014-01-08 12   16.7   176.9W    982    2    55          
2014-01-08 18   16.7   176.8W    982    2    60          
2014-01-09 00   16.7   176.7W    959    3    85          
2014-01-09 06   16.8   176.5W    959    3    85          
2014-01-09 12   16.9   176.5W    959    3    85          
2014-01-09 18   17.1   175.8W    956    4    90          
2014-01-10 00   17.5   175.5W    956    4    90          
2014-01-10 06   17.9   175.2W    952    4    95          
2014-01-10 12   18.4   174.9W    944    4   105          
2014-01-10 18   18.8   174.7W    933    5   120          
2014-01-11 00   19.5   174.4W    937    5   115          
2014-01-11 06   20.5   173.8W    929    5   125          
2014-01-11 12   21.5   173.5W    929    5   125          
2014-01-11 18   22.4   173.2W    929    5   125          
2014-01-12 00   23.4   172.7W    933    5   120          
2014-01-12 06   24.5   172.2W    941    5   110          
2014-01-12 12   25.7   171.9W    952    4    95          
2014-01-12 18   26.6   171.3W    963    3    80          
2014-01-13 00   27.9   171.2W    974    3    65          
2014-01-13 06   28.9   170.8W    974    3    65          
2014-01-13 12   29.6   169.9W    982    2    55          
2014-01-13 18   30.5   168.8W    985    2    50          
2014-01-14 00   31.4   168.0W    989    1    45          
2014-01-14 06   32.0   166.7W    989    1    45          
2014-01-14 12   32.4   164.7W   1004         25          
Winds are 10-min average.

Tropical cyclone tracks developed by Michael Bath using operational warnings and advisories and Google Maps.


[Australian Severe Weather index] [Copyright Notice] [Email Contacts] [Search This Site] [Privacy Policy]
Document: tropical_cyclone_ian.htm Updated: 2 May 2017